Observation data for Seminole on 01/20/2019      Previous  Date  Next       Current Mesonet Observations  Soil Data  Daily Summary Page  Observations in Plain Language
KSM1 200600Z 16007KT 01/M05 A3029 RMK A01 T00081048  RH  067%=      5-min Rain = 0
KSM1 200605Z 16007KT 01/M05 A3029 RMK A01 T00081047  RH  067%=      5-min Rain = 0
KSM1 200610Z 16007KT 01/M05 A3029 RMK A01 T00101046  RH  067%=      5-min Rain = 0
KSM1 200615Z 16006KT 01/M05 A3029 RMK A01 T00091047  RH  067%=      5-min Rain = 0
KSM1 200620Z 16007KT 01/M05 A3028 RMK A01 T00091048  RH  066%=      5-min Rain = 0
KSM1 200625Z 16006KT 01/M05 A3028 RMK A01 T00101049  RH  065%=      5-min Rain = 0
KSM1 200630Z 16006KT 01/M05 A3028 RMK A01 T00101050  RH  064%=      5-min Rain = 0
KSM1 200635Z 15005KT 01/M05 A3029 RMK A01 T00061050  RH  066%=      5-min Rain = 0
KSM1 200640Z 15006KT 00/M05 A3029 RMK A01 T00041051  RH  067%=      5-min Rain = 0
KSM1 200645Z 15005KT 01/M05 A3029 RMK A01 T00061050  RH  066%=      5-min Rain = 0
KSM1 200650Z 15006KT 01/M05 A3029 RMK A01 T00051049  RH  067%=      5-min Rain = 0
KSM1 200655Z 15006KT 01/M05 A3029 RMK A01 T00101050  RH  064%=      5-min Rain = 0
KSM1 200700Z 14006KT 01/M05 A3029 RMK A01 T00091050  RH  065%=      5-min Rain = 0
KSM1 200705Z 14006KT 01/M05 A3029 RMK A01 T00071050  RH  066%=      5-min Rain = 0
KSM1 200710Z 14005KT 01/M05 A303 RMK A01 T00071051  RH  065%=      5-min Rain = 0
KSM1 200715Z 15005KT 01/M05 A303 RMK A01 T00061051  RH  066%=      5-min Rain = 0
KSM1 200720Z 16005KT 00/M05 A303 RMK A01 T00041052  RH  067%=      5-min Rain = 0
KSM1 200725Z 16005KT 00/M05 A303 RMK A01 T00031051  RH  067%=      5-min Rain = 0
KSM1 200730Z 16005KT 00/M05 A3029 RMK A01 T00021048  RH  069%=      5-min Rain = 0
KSM1 200735Z 16006KT 00/05 A3029 RMK A01 T00-00-48  RH  070%=      5-min Rain = 0
KSM1 200740Z 16006KT M00/M05 A3029 RMK A01 T10011048  RH  071%=      5-min Rain = 0
KSM1 200745Z 16006KT M00/M05 A3029 RMK A01 T10021048  RH  072%=      5-min Rain = 0
KSM1 200750Z 16006KT M00/M05 A3029 RMK A01 T10021048  RH  072%=      5-min Rain = 0
KSM1 200755Z 16006KT M00/M05 A3029 RMK A01 T10021048  RH  071%=      5-min Rain = 0
KSM1 200800Z 16006KT M00/M05 A3029 RMK A01 T10021047  RH  072%=      5-min Rain = 0
KSM1 200805Z 16006KT M00/M05 A3028 RMK A01 T10021047  RH  072%=      5-min Rain = 0
KSM1 200810Z 16006KT M00/M05 A3028 RMK A01 T10021047  RH  072%=      5-min Rain = 0
KSM1 200815Z 16006KT M00/M05 A3028 RMK A01 T10031048  RH  072%=      5-min Rain = 0
KSM1 200820Z 16006KT M00/M05 A3028 RMK A01 T10031048  RH  072%=      5-min Rain = 0
KSM1 200825Z 16005KT M00/M05 A3027 RMK A01 T10041048  RH  072%=      5-min Rain = 0
KSM1 200830Z 16005KT M00/M05 A3027 RMK A01 T10041047  RH  073%=      5-min Rain = 0
KSM1 200835Z 16005KT M01/M05 A3027 RMK A01 T10051047  RH  074%=      5-min Rain = 0
KSM1 200840Z 16005KT M01/M05 A3027 RMK A01 T10061048  RH  073%=      5-min Rain = 0
KSM1 200845Z 16005KT M01/M05 A3027 RMK A01 T10071050  RH  073%=      5-min Rain = 0
KSM1 200850Z 15006KT M01/M05 A3027 RMK A01 T10071050  RH  073%=      5-min Rain = 0
KSM1 200855Z 15005KT M01/M05 A3027 RMK A01 T10051049  RH  072%=      5-min Rain = 0
KSM1 200900Z 15005KT M00/M05 A3027 RMK A01 T10041048  RH  072%=      5-min Rain = 0
KSM1 200905Z 14005KT M01/M05 A3027 RMK A01 T10071049  RH  073%=      5-min Rain = 0
KSM1 200910Z 14004KT M01/M05 A3026 RMK A01 T10081049  RH  074%=      5-min Rain = 0
KSM1 200915Z 14005KT M01/M05 A3026 RMK A01 T10071049  RH  074%=      5-min Rain = 0
KSM1 200920Z 14005KT M01/M05 A3026 RMK A01 T10071048  RH  074%=      5-min Rain = 0
KSM1 200925Z 14004KT M01/M05 A3026 RMK A01 T10081047  RH  075%=      5-min Rain = 0
KSM1 200930Z 14005KT M01/M05 A3026 RMK A01 T10071046  RH  075%=      5-min Rain = 0
KSM1 200935Z 14005KT M01/M05 A3026 RMK A01 T10071047  RH  074%=      5-min Rain = 0
KSM1 200940Z 15005KT M01/M05 A3026 RMK A01 T10081048  RH  075%=      5-min Rain = 0
KSM1 200945Z 15005KT M01/M05 A3026 RMK A01 T10111049  RH  076%=      5-min Rain = 0
KSM1 200950Z 15004KT M01/M05 A3026 RMK A01 T10141049  RH  077%=      5-min Rain = 0
KSM1 200955Z 15004KT M02/M05 A3026 RMK A01 T10151049  RH  078%=      5-min Rain = 0
KSM1 201000Z 15004KT M02/M05 A3026 RMK A01 T10161048  RH  079%=      5-min Rain = 0
KSM1 201005Z 14004KT M01/M05 A3026 RMK A01 T10131049  RH  077%=      5-min Rain = 0
KSM1 201010Z 13005KT M01/M05 A3026 RMK A01 T10141048  RH  078%=      5-min Rain = 0
KSM1 201015Z 13005KT M01/M05 A3026 RMK A01 T10111047  RH  077%=      5-min Rain = 0
KSM1 201020Z 13005KT M01/M05 A3026 RMK A01 T10111046  RH  078%=      5-min Rain = 0
KSM1 201025Z 13004KT M01/M05 A3026 RMK A01 T10111045  RH  078%=      5-min Rain = 0
KSM1 201030Z 12005KT M01/M05 A3026 RMK A01 T10111045  RH  078%=      5-min Rain = 0
KSM1 201035Z 13004KT M01/M04 A3026 RMK A01 T10101044  RH  078%=      5-min Rain = 0
KSM1 201040Z 12005KT M01/M04 A3025 RMK A01 T10111044  RH  079%=      5-min Rain = 0
KSM1 201045Z 12005KT M01/M05 A3026 RMK A01 T10131045  RH  079%=      5-min Rain = 0
KSM1 201050Z 12004KT M02/M05 A3025 RMK A01 T10151046  RH  080%=      5-min Rain = 0
KSM1 201055Z 12005KT M02/M05 A3025 RMK A01 T10161046  RH  080%=      5-min Rain = 0
KSM1 201100Z 12004KT M02/M05 A3025 RMK A01 T10171046  RH  081%=      5-min Rain = 0
KSM1 201105Z 12004KT M02/M05 A3025 RMK A01 T10161046  RH  081%=      5-min Rain = 0
KSM1 201110Z 12004KT M02/M05 A3025 RMK A01 T10171046  RH  081%=      5-min Rain = 0
KSM1 201115Z 12004KT M02/M05 A3025 RMK A01 T10171045  RH  081%=      5-min Rain = 0
KSM1 201120Z 12003KT M02/M05 A3025 RMK A01 T10161045  RH  081%=      5-min Rain = 0
KSM1 201125Z 13003KT M02/M05 A3025 RMK A01 T10151045  RH  080%=      5-min Rain = 0
KSM1 201130Z 13004KT M01/M05 A3025 RMK A01 T10141045  RH  080%=      5-min Rain = 0
KSM1 201135Z 14004KT M01/M05 A3024 RMK A01 T10141046  RH  080%=      5-min Rain = 0
KSM1 201140Z 15005KT M01/M05 A3024 RMK A01 T10141046  RH  080%=      5-min Rain = 0
KSM1 201145Z 14005KT M01/M05 A3024 RMK A01 T10141045  RH  080%=      5-min Rain = 0
KSM1 201150Z 14005KT M02/M05 A3024 RMK A01 T10151046  RH  080%=      5-min Rain = 0
KSM1 201155Z 14004KT M02/M05 A3024 RMK A01 T10161045  RH  081%=      5-min Rain = 0
KSM1 201200Z 14005KT M02/M05 A3023 RMK A01 T10161046  RH  081%=      5-min Rain = 0
KSM1 201205Z 14005KT M02/M05 A3023 RMK A01 T10161045  RH  081%=      5-min Rain = 0
KSM1 201210Z 15005KT M02/M05 A3023 RMK A01 T10151045  RH  081%=      5-min Rain = 0
KSM1 201215Z 15006KT M02/M05 A3023 RMK A01 T10151045  RH  081%=      5-min Rain = 0
KSM1 201220Z 15005KT M02/M05 A3023 RMK A01 T10171046  RH  081%=      5-min Rain = 0
KSM1 201225Z 15005KT M02/M05 A3023 RMK A01 T10191046  RH  082%=      5-min Rain = 0
KSM1 201230Z 15006KT M02/M04 A3023 RMK A01 T10181044  RH  083%=      5-min Rain = 0
KSM1 201235Z 15004KT M02/M04 A3023 RMK A01 T10181044  RH  083%=      5-min Rain = 0
KSM1 201240Z 15003KT M02/M05 A3024 RMK A01 T10181045  RH  082%=      5-min Rain = 0
KSM1 201245Z 14003KT M02/M05 A3024 RMK A01 T10191045  RH  082%=      5-min Rain = 0
KSM1 201250Z 15003KT M02/M05 A3024 RMK A01 T10201046  RH  083%=      5-min Rain = 0
KSM1 201255Z 14004KT M02/M04 A3024 RMK A01 T10181044  RH  083%=      5-min Rain = 0
KSM1 201300Z 13005KT M02/M04 A3024 RMK A01 T10171044  RH  082%=      5-min Rain = 0
KSM1 201305Z 13004KT M02/M04 A3024 RMK A01 T10171044  RH  082%=      5-min Rain = 0
KSM1 201310Z 12005KT M02/M04 A3024 RMK A01 T10191044  RH  083%=      5-min Rain = 0
KSM1 201315Z 12005KT M02/M04 A3024 RMK A01 T10201044  RH  084%=      5-min Rain = 0
KSM1 201320Z 13004KT M02/M05 A3024 RMK A01 T10221046  RH  084%=      5-min Rain = 0
KSM1 201325Z 13005KT M02/M05 A3025 RMK A01 T10241047  RH  084%=      5-min Rain = 0
KSM1 201330Z 13004KT M03/M05 A3025 RMK A01 T10251046  RH  085%=      5-min Rain = 0
KSM1 201335Z 13004KT M02/M05 A3024 RMK A01 T10241045  RH  086%=      5-min Rain = 0
KSM1 201340Z 14004KT M02/M05 A3025 RMK A01 T10241045  RH  086%=      5-min Rain = 0
KSM1 201345Z 14004KT M03/M05 A3025 RMK A01 T10261047  RH  086%=      5-min Rain = 0
KSM1 201350Z 14003KT M03/M05 A3025 RMK A01 T10271048  RH  086%=      5-min Rain = 0
KSM1 201355Z 14003KT M03/M05 A3025 RMK A01 T10321052  RH  086%=      5-min Rain = 0
KSM1 201400Z 14003KT M03/M05 A3025 RMK A01 T10321049  RH  088%=      5-min Rain = 0
KSM1 201405Z 14004KT M03/M05 A3025 RMK A01 T10281045  RH  089%=      5-min Rain = 0
KSM1 201410Z 14006KT M03/M05 A3025 RMK A01 T10281047  RH  087%=      5-min Rain = 0
KSM1 201415Z 14006KT M03/M04 A3024 RMK A01 T10261043  RH  089%=      5-min Rain = 0
KSM1 201420Z 14006KT M02/M04 A3024 RMK A01 T10231042  RH  088%=      5-min Rain = 0
KSM1 201425Z 13006KT M02/M04 A3024 RMK A01 T10181037  RH  088%=      5-min Rain = 0
KSM1 201430Z 13005KT M01/M04 A3024 RMK A01 T10121035  RH  085%=      5-min Rain = 0
KSM1 201435Z 13005KT M01/M03 A3025 RMK A01 T10081034  RH  083%=      5-min Rain = 0
KSM1 201440Z 14004KT M01/M03 A3025 RMK A01 T10051034  RH  081%=      5-min Rain = 0
KSM1 201445Z 16003KT M00/M03 A3025 RMK A01 T10031033  RH  080%=      5-min Rain = 0
KSM1 201450Z 15004KT 00/03 A3025 RMK A01 T00-00-33  RH  079%=      5-min Rain = 0
KSM1 201455Z 16004KT 00/M03 A3025 RMK A01 T00021030  RH  079%=      5-min Rain = 0
KSM1 201500Z 17006KT 01/M03 A3024 RMK A01 T00051028  RH  079%=      5-min Rain = 0
KSM1 201505Z 17006KT 01/M03 A3024 RMK A01 T00101027  RH  077%=      5-min Rain = 0
KSM1 201510Z 16007KT 01/M03 A3024 RMK A01 T00111028  RH  076%=      5-min Rain = 0
KSM1 201515Z 17006KT 01/M03 A3025 RMK A01 T00131027  RH  075%=      5-min Rain = 0
KSM1 201520Z 18006KT 02/M03 A3025 RMK A01 T00171025  RH  074%=      5-min Rain = 0
KSM1 201525Z 17007KT 02/M03 A3025 RMK A01 T00211026  RH  071%=      5-min Rain = 0
KSM1 201530Z 18007KT 03/M03 A3025 RMK A01 T00261025  RH  070%=      5-min Rain = 0
KSM1 201535Z 18007KT 03/M03 A3025 RMK A01 T00291027  RH  067%=      5-min Rain = 0
KSM1 201540Z 17006KT 03/M03 A3025 RMK A01 T00311028  RH  066%=      5-min Rain = 0
KSM1 201545Z 17006KT 03/M03 A3025 RMK A01 T00321028  RH  065%=      5-min Rain = 0
KSM1 201550Z 18005KT 04/M03 A3025 RMK A01 T00351027  RH  064%=      5-min Rain = 0
KSM1 201555Z 18004KT 04/M03 A3025 RMK A01 T00391027  RH  063%=      5-min Rain = 0
KSM1 201600Z 20004KT 05/M03 A3025 RMK A01 T00451028  RH  059%=      5-min Rain = 0
KSM1 201605Z 20005KT 05/M03 A3024 RMK A01 T00491032  RH  056%=      5-min Rain = 0
KSM1 201610Z 20005KT 05/M03 A3024 RMK A01 T00531033  RH  054%=      5-min Rain = 0
KSM1 201615Z 20006KT 06/M03 A3024 RMK A01 T00581034  RH  052%=      5-min Rain = 0
KSM1 201620Z 20006KT 06/M04 A3024 RMK A01 T00611035  RH  051%=      5-min Rain = 0
KSM1 201625Z 19006KT 06/M04 A3024 RMK A01 T00631035  RH  050%=      5-min Rain = 0
KSM1 201630Z 21006KT 06/M04 A3024 RMK A01 T00641037  RH  049%=      5-min Rain = 0
KSM1 201635Z 20006KT 07/M04 A3024 RMK A01 T00671036  RH  048%=      5-min Rain = 0
KSM1 201640Z 19007KT 07/M03 A3023 RMK A01 T00721034  RH  047%=      5-min Rain = 0
KSM1 201645Z 20007KT 08/M04 A3023 RMK A01 T00781035  RH  045%=      5-min Rain = 0
KSM1 201650Z 20006KT 08/M04 A3023 RMK A01 T00811038  RH  043%=      5-min Rain = 0
KSM1 201655Z 21007KT 08/M04 A3023 RMK A01 T00841041  RH  041%=      5-min Rain = 0
KSM1 201700Z 21007KT 09/M04 A3023 RMK A01 T00871044  RH  039%=      5-min Rain = 0
KSM1 201705Z 21006KT 09/M04 A3024 RMK A01 T00911043  RH  039%=      5-min Rain = 0
KSM1 201710Z 23008KT 10/M05 A3024 RMK A01 T00951049  RH  036%=      5-min Rain = 0
KSM1 201715Z 22008KT 10/M05 A3024 RMK A01 T00991051  RH  034%=      5-min Rain = 0
KSM1 201720Z 22008KT 10/M05 A3024 RMK A01 T01011052  RH  034%=      5-min Rain = 0
KSM1 201725Z 22008KT 10/M05 A3024 RMK A01 T01031052  RH  033%=      5-min Rain = 0
KSM1 201730Z 22009KT 11/M05 A3024 RMK A01 T01061052  RH  033%=      5-min Rain = 0
KSM1 201735Z 22008KT 11/M05 A3023 RMK A01 T01101052  RH  032%=      5-min Rain = 0
KSM1 201740Z 20008KT 11/M05 A3023 RMK A01 T01131052  RH  031%=      5-min Rain = 0
KSM1 201745Z 21008KT 12/M06 A3022 RMK A01 T01161055  RH  030%=      5-min Rain = 0
KSM1 201750Z 21007KT 12/M05 A3022 RMK A01 T01191054  RH  029%=      5-min Rain = 0
KSM1 201755Z 20009KT 12/M06 A3022 RMK A01 T01221059  RH  028%=      5-min Rain = 0
KSM1 201800Z 20008KT 13/M06 A3021 RMK A01 T01251060  RH  027%=      5-min Rain = 0
KSM1 201805Z 20009KT 13/M07 A3021 RMK A01 T01291065  RH  025%=      5-min Rain = 0
KSM1 201810Z 20010KT 13/M06 A3021 RMK A01 T01331063  RH  025%=      5-min Rain = 0
KSM1 201815Z 20010KT 14/M06 A302 RMK A01 T01351062  RH  025%=      5-min Rain = 0
KSM1 201820Z 21009KT 14/M07 A302 RMK A01 T01401065  RH  024%=      5-min Rain = 0
KSM1 201825Z 21010KT 14/M07 A302 RMK A01 T01421068  RH  023%=      5-min Rain = 0
KSM1 201830Z 21009KT 14/M07 A3019 RMK A01 T01431068  RH  023%=      5-min Rain = 0
KSM1 201835Z 21008G13KT 14/M07 A3019 RMK A01 T01441066  RH  023%=      5-min Rain = 0
KSM1 201840Z 21008KT 14/M07 A3019 RMK A01 T01441068  RH  022%=      5-min Rain = 0
KSM1 201845Z 22006KT 15/M07 A3019 RMK A01 T01471065  RH  022%=      5-min Rain = 0
KSM1 201850Z 24008KT 15/M07 A3019 RMK A01 T01481071  RH  021%=      5-min Rain = 0
KSM1 201855Z 22008KT 15/M07 A3019 RMK A01 T01511069  RH  021%=      5-min Rain = 0
KSM1 201900Z 22010KT 15/M07 A3018 RMK A01 T01521072  RH  021%=      5-min Rain = 0
KSM1 201905Z 22007KT 15/M07 A3017 RMK A01 T01541070  RH  021%=      5-min Rain = 0
KSM1 201910Z 20010KT 16/M07 A3017 RMK A01 T01551069  RH  021%=      5-min Rain = 0
KSM1 201915Z 22009KT 16/M07 A3017 RMK A01 T01561072  RH  020%=      5-min Rain = 0
KSM1 201920Z 23009KT 15/M08 A3016 RMK A01 T01521075  RH  020%=      5-min Rain = 0
KSM1 201925Z 22008KT 15/M07 A3016 RMK A01 T01541069  RH  021%=      5-min Rain = 0
KSM1 201930Z 21008G13KT 16/M07 A3015 RMK A01 T01581070  RH  020%=      5-min Rain = 0
KSM1 201935Z 22008KT 16/M07 A3015 RMK A01 T01581071  RH  020%=      5-min Rain = 0
KSM1 201940Z 22010KT 16/M07 A3015 RMK A01 T01571073  RH  020%=      5-min Rain = 0
KSM1 201945Z 22009KT 16/M07 A3014 RMK A01 T01581072  RH  020%=      5-min Rain = 0
KSM1 201950Z 22008KT 16/M08 A3014 RMK A01 T01591075  RH  019%=      5-min Rain = 0
KSM1 201955Z 21009KT 16/M07 A3013 RMK A01 T01581071  RH  020%=      5-min Rain = 0
KSM1 202000Z 21009KT 16/M08 A3013 RMK A01 T01601075  RH  019%=      5-min Rain = 0
KSM1 202005Z 21008KT 16/M07 A3013 RMK A01 T01631074  RH  019%=      5-min Rain = 0
KSM1 202010Z 21009KT 17/M08 A3012 RMK A01 T01651078  RH  018%=      5-min Rain = 0
KSM1 202015Z 21008KT 17/M08 A3012 RMK A01 T01661076  RH  018%=      5-min Rain = 0
KSM1 202020Z 20009KT 17/M08 A3011 RMK A01 T01681078  RH  018%=      5-min Rain = 0
KSM1 202025Z 21009KT 17/M08 A3011 RMK A01 T01681084  RH  017%=      5-min Rain = 0
KSM1 202030Z 20007KT 17/M08 A3011 RMK A01 T01701081  RH  017%=      5-min Rain = 0
KSM1 202035Z 21008KT 17/M08 A3011 RMK A01 T01711079  RH  017%=      5-min Rain = 0
KSM1 202040Z 20007KT 17/M08 A3011 RMK A01 T01701082  RH  017%=      5-min Rain = 0
KSM1 202045Z 21008KT 17/M08 A3011 RMK A01 T01711083  RH  017%=      5-min Rain = 0
KSM1 202050Z 22007KT 17/M08 A301 RMK A01 T01681084  RH  017%=      5-min Rain = 0
KSM1 202055Z 21008KT 17/M08 A301 RMK A01 T01681083  RH  017%=      5-min Rain = 0
KSM1 202100Z 20008KT 17/M08 A301 RMK A01 T01721079  RH  017%=      5-min Rain = 0
KSM1 202105Z 20008KT 18/M08 A3009 RMK A01 T01751082  RH  016%=      5-min Rain = 0
KSM1 202110Z 21007KT 18/M09 A3009 RMK A01 T01771087  RH  016%=      5-min Rain = 0
KSM1 202115Z 22008KT 18/M09 A3009 RMK A01 T01781088  RH  015%=      5-min Rain = 0
KSM1 202120Z 24008G13KT 17/M09 A3009 RMK A01 T01721094  RH  015%=      5-min Rain = 0
KSM1 202125Z 21009KT 17/M09 A3009 RMK A01 T01711087  RH  016%=      5-min Rain = 0
KSM1 202130Z 21009KT 18/M09 A3009 RMK A01 T01751088  RH  016%=      5-min Rain = 0
KSM1 202135Z 20009KT 18/M08 A3008 RMK A01 T01751082  RH  016%=      5-min Rain = 0
KSM1 202140Z 20010KT 18/M08 A3008 RMK A01 T01751080  RH  017%=      5-min Rain = 0
KSM1 202145Z 21010G15KT 17/M08 A3008 RMK A01 T01711083  RH  017%=      5-min Rain = 0
KSM1 202150Z 22009KT 17/M08 A3008 RMK A01 T01731081  RH  017%=      5-min Rain = 0
KSM1 202155Z 22010KT 18/M08 A3008 RMK A01 T01751080  RH  017%=      5-min Rain = 0
KSM1 202200Z 20011KT 17/M08 A3009 RMK A01 T01731079  RH  017%=      5-min Rain = 0
KSM1 202205Z 22010KT 17/M08 A3009 RMK A01 T01701079  RH  017%=      5-min Rain = 0
KSM1 202210Z 21009KT 17/M08 A3009 RMK A01 T01651078  RH  018%=      5-min Rain = 0
KSM1 202215Z 21008KT 17/M07 A3009 RMK A01 T01681074  RH  018%=      5-min Rain = 0
KSM1 202220Z 22007KT 17/M08 A3009 RMK A01 T01701078  RH  018%=      5-min Rain = 0
KSM1 202225Z 21009KT 17/M08 A3009 RMK A01 T01681078  RH  018%=      5-min Rain = 0
KSM1 202230Z 21008KT 16/M08 A3008 RMK A01 T01631078  RH  018%=      5-min Rain = 0
KSM1 202235Z 21009KT 16/M08 A3008 RMK A01 T01591079  RH  019%=      5-min Rain = 0
KSM1 202240Z 21008KT 16/M08 A3009 RMK A01 T01641077  RH  018%=      5-min Rain = 0
KSM1 202245Z 21009KT 17/M08 A3009 RMK A01 T01671078  RH  018%=      5-min Rain = 0
KSM1 202250Z 21008KT 17/M08 A3008 RMK A01 T01691079  RH  018%=      5-min Rain = 0
KSM1 202255Z 20008KT 17/M07 A3008 RMK A01 T01691073  RH  018%=      5-min Rain = 0
KSM1 202300Z 20008G13KT 17/M08 A3008 RMK A01 T01681076  RH  018%=      5-min Rain = 0
KSM1 202305Z 19007KT 17/M07 A3008 RMK A01 T01671068  RH  019%=      5-min Rain = 0
KSM1 202310Z 20009KT 16/M07 A3008 RMK A01 T01641072  RH  019%=      5-min Rain = 0
KSM1 202315Z 20010KT 16/M07 A3008 RMK A01 T01621074  RH  019%=      5-min Rain = 0
KSM1 202320Z 20010KT 16/M08 A3008 RMK A01 T01581075  RH  019%=      5-min Rain = 0
KSM1 202325Z 19011KT 16/M08 A3008 RMK A01 T01561076  RH  019%=      5-min Rain = 0
KSM1 202330Z 20010KT 15/M08 A3008 RMK A01 T01541077  RH  020%=      5-min Rain = 0
KSM1 202335Z 19008KT 15/M07 A3007 RMK A01 T01521074  RH  020%=      5-min Rain = 0
KSM1 202340Z 19007KT 15/M07 A3007 RMK A01 T01471069  RH  022%=      5-min Rain = 0
KSM1 202345Z 19007KT 14/M07 A3007 RMK A01 T01421068  RH  023%=      5-min Rain = 0
KSM1 202350Z 19008KT 14/M07 A3007 RMK A01 T01401068  RH  023%=      5-min Rain = 0
KSM1 202355Z 19007KT 14/M07 A3007 RMK A01 T01381069  RH  023%=      5-min Rain = 0
KSM1 210000Z 19007KT 14/M07 A3007 RMK A01 T01351068  RH  024%=      5-min Rain = 0
KSM1 210005Z 19007KT 13/M07 A3007 RMK A01 T01311067  RH  025%=      5-min Rain = 0
KSM1 210010Z 19007KT 13/M07 A3007 RMK A01 T01281067  RH  025%=      5-min Rain = 0
KSM1 210015Z 19007KT 12/M07 A3007 RMK A01 T01241065  RH  026%=      5-min Rain = 0
KSM1 210020Z 19006KT 12/M06 A3007 RMK A01 T01191064  RH  027%=      5-min Rain = 0
KSM1 210025Z 19006KT 12/M07 A3007 RMK A01 T01181067  RH  027%=      5-min Rain = 0
KSM1 210030Z 19006KT 12/M07 A3007 RMK A01 T01161066  RH  027%=      5-min Rain = 0
KSM1 210035Z 19007KT 11/M07 A3007 RMK A01 T01121065  RH  028%=      5-min Rain = 0
KSM1 210040Z 19007KT 11/M06 A3007 RMK A01 T01081064  RH  029%=      5-min Rain = 0
KSM1 210045Z 19008KT 11/M07 A3007 RMK A01 T01081065  RH  029%=      5-min Rain = 0
KSM1 210050Z 19009KT 11/M07 A3007 RMK A01 T01141069  RH  027%=      5-min Rain = 0
KSM1 210055Z 19009KT 12/M07 A3007 RMK A01 T01161069  RH  027%=      5-min Rain = 0
KSM1 210100Z 19008KT 12/M07 A3007 RMK A01 T01161069  RH  027%=      5-min Rain = 0
KSM1 210105Z 19008KT 11/M07 A3007 RMK A01 T01141068  RH  027%=      5-min Rain = 0
KSM1 210110Z 20008KT 11/M07 A3007 RMK A01 T01141070  RH  027%=      5-min Rain = 0
KSM1 210115Z 20007KT 11/M07 A3006 RMK A01 T01131070  RH  027%=      5-min Rain = 0
KSM1 210120Z 19006KT 11/M07 A3006 RMK A01 T01111069  RH  028%=      5-min Rain = 0
KSM1 210125Z 19006KT 11/M07 A3006 RMK A01 T01051065  RH  030%=      5-min Rain = 0
KSM1 210130Z 18006KT 10/M06 A3006 RMK A01 T00991063  RH  031%=      5-min Rain = 0
KSM1 210135Z 18004KT 09/M06 A3006 RMK A01 T00931059  RH  034%=      5-min Rain = 0
KSM1 210140Z 18005KT 09/M06 A3006 RMK A01 T00911064  RH  033%=      5-min Rain = 0
KSM1 210145Z 18005KT 09/M07 A3005 RMK A01 T00901065  RH  033%=      5-min Rain = 0
KSM1 210150Z 18005KT 09/M07 A3005 RMK A01 T00861065  RH  034%=      5-min Rain = 0
KSM1 210155Z 18005KT 08/M07 A3005 RMK A01 T00821067  RH  034%=      5-min Rain = 0
KSM1 210200Z 18005KT 08/M07 A3005 RMK A01 T00811068  RH  034%=      5-min Rain = 0
KSM1 210205Z 18006KT 08/M07 A3005 RMK A01 T00811066  RH  034%=      5-min Rain = 0
KSM1 210210Z 18006KT 08/M07 A3005 RMK A01 T00791065  RH  035%=      5-min Rain = 0
KSM1 210215Z 18006KT 08/M06 A3005 RMK A01 T00771064  RH  036%=      5-min Rain = 0
KSM1 210220Z 18005KT 08/M07 A3005 RMK A01 T00781065  RH  036%=      5-min Rain = 0
KSM1 210225Z 18006KT 08/M07 A3004 RMK A01 T00791065  RH  035%=      5-min Rain = 0
KSM1 210230Z 18006KT 08/M06 A3004 RMK A01 T00771060  RH  037%=      5-min Rain = 0
KSM1 210235Z 17007KT 07/M06 A3004 RMK A01 T00731056  RH  039%=      5-min Rain = 0
KSM1 210240Z 17008KT 07/M06 A3004 RMK A01 T00711056  RH  040%=      5-min Rain = 0
KSM1 210245Z 17009KT 08/M06 A3004 RMK A01 T00761063  RH  037%=      5-min Rain = 0
KSM1 210250Z 17009KT 08/M07 A3004 RMK A01 T00841067  RH  034%=      5-min Rain = 0
KSM1 210255Z 17009KT 09/M07 A3004 RMK A01 T00851067  RH  033%=      5-min Rain = 0
KSM1 210300Z 17009KT 08/M07 A3003 RMK A01 T00831066  RH  034%=      5-min Rain = 0
KSM1 210305Z 17008KT 08/M07 A3003 RMK A01 T00781065  RH  036%=      5-min Rain = 0
KSM1 210310Z 17008KT 07/M06 A3003 RMK A01 T00741064  RH  037%=      5-min Rain = 0
KSM1 210315Z 17009KT 07/M06 A3003 RMK A01 T00711064  RH  038%=      5-min Rain = 0
KSM1 210320Z 17009KT 07/M06 A3003 RMK A01 T00711063  RH  038%=      5-min Rain = 0
KSM1 210325Z 17009KT 07/M06 A3002 RMK A01 T00691060  RH  039%=      5-min Rain = 0
KSM1 210330Z 17009KT 07/M06 A3002 RMK A01 T00661059  RH  041%=      5-min Rain = 0
KSM1 210335Z 17008KT 07/M06 A3002 RMK A01 T00651056  RH  042%=      5-min Rain = 0
KSM1 210340Z 17008KT 06/M05 A3002 RMK A01 T00641053  RH  043%=      5-min Rain = 0
KSM1 210345Z 17009KT 06/M05 A3002 RMK A01 T00631051  RH  044%=      5-min Rain = 0
KSM1 210350Z 17010KT 07/M05 A3002 RMK A01 T00651046  RH  045%=      5-min Rain = 0
KSM1 210355Z 17011KT 07/M04 A3002 RMK A01 T00711040  RH  045%=      5-min Rain = 0
KSM1 210400Z 18011KT 07/M04 A3003 RMK A01 T00741037  RH  046%=      5-min Rain = 0
KSM1 210405Z 18011KT 07/M03 A3003 RMK A01 T00741033  RH  047%=      5-min Rain = 0
KSM1 210410Z 18011KT 08/M03 A3003 RMK A01 T00771030  RH  047%=      5-min Rain = 0
KSM1 210415Z 18010KT 08/M03 A3003 RMK A01 T00761029  RH  047%=      5-min Rain = 0
KSM1 210420Z 18009KT 07/M03 A3003 RMK A01 T00741028  RH  049%=      5-min Rain = 0
KSM1 210425Z 18009KT 07/M03 A3003 RMK A01 T00721027  RH  050%=      5-min Rain = 0
KSM1 210430Z 18010KT 07/M03 A3003 RMK A01 T00711026  RH  050%=      5-min Rain = 0
KSM1 210435Z 18010KT 07/M03 A3003 RMK A01 T00711025  RH  051%=      5-min Rain = 0
KSM1 210440Z 18010KT 07/M03 A3003 RMK A01 T00701025  RH  051%=      5-min Rain = 0
KSM1 210445Z 19009KT 07/M02 A3004 RMK A01 T00691024  RH  052%=      5-min Rain = 0
KSM1 210450Z 19009KT 07/M02 A3004 RMK A01 T00671024  RH  053%=      5-min Rain = 0
KSM1 210455Z 19009KT 07/M02 A3004 RMK A01 T00681024  RH  052%=      5-min Rain = 0
KSM1 210500Z 19011KT 07/M02 A3004 RMK A01 T00691024  RH  052%=      5-min Rain = 0
KSM1 210505Z 19010KT 07/M02 A3004 RMK A01 T00691024  RH  052%=      5-min Rain = 0
KSM1 210510Z 19010KT 07/M02 A3004 RMK A01 T00671024  RH  052%=      5-min Rain = 0
KSM1 210515Z 19010KT 07/M02 A3004 RMK A01 T00661024  RH  053%=      5-min Rain = 0
KSM1 210520Z 19009KT 06/M02 A3003 RMK A01 T00641024  RH  054%=      5-min Rain = 0
KSM1 210525Z 18010KT 06/M02 A3003 RMK A01 T00631024  RH  054%=      5-min Rain = 0
KSM1 210530Z 18010KT 06/M03 A3003 RMK A01 T00631025  RH  054%=      5-min Rain = 0
KSM1 210535Z 18009KT 06/M03 A3003 RMK A01 T00621025  RH  054%=      5-min Rain = 0
KSM1 210540Z 18009KT 06/M03 A3003 RMK A01 T00601025  RH  055%=      5-min Rain = 0
KSM1 210545Z 18008KT 06/M03 A3003 RMK A01 T00581025  RH  056%=      5-min Rain = 0
KSM1 210550Z 18008KT 06/M03 A3002 RMK A01 T00561025  RH  057%=      5-min Rain = 0
KSM1 210555Z 18008KT 05/M03 A3003 RMK A01 T00541025  RH  057%=      5-min Rain = 0

Page generated in 0.0169 seconds.